Time;durP1;ratioP1;P1;durP2;ratioP2;P2;SDS_P1;SDS_P2;PMS_P1;PMS_P2;Temp;Humidity;BMP_temperature;BMP_pressure;BME280_temperature;BME280_humidity;BME280_pressure;Samples;Min_cycle;Max_cycle;Signal;HPM_P1;HPM_P2
2021/12/03 00:01:40;;;;;;;13.20;6.28;;;-1.90;99.90;;;;;;4954295;29;20392;-87
2021/12/03 00:04:06;;;;;;;14.77;6.40;;;-1.90;99.90;;;;;;4957288;29;20400;-84
2021/12/03 00:06:35;;;;;;;12.10;6.32;;;-1.90;99.90;;;;;;4955916;28;20396;-86
2021/12/03 00:09:01;;;;;;;10.27;5.70;;;-1.80;99.90;;;;;;4958336;29;20474;-85
2021/12/03 00:11:29;;;;;;;15.75;6.10;;;-1.80;99.90;;;;;;4955403;29;20732;-87
2021/12/03 00:13:54;;;;;;;14.73;6.50;;;-1.90;99.90;;;;;;4957635;29;20467;-85
2021/12/03 00:16:20;;;;;;;12.85;5.50;;;-1.90;99.90;;;;;;4966727;28;20396;-87
2021/12/03 00:18:47;;;;;;;11.33;5.53;;;-1.90;99.90;;;;;;4948848;29;20443;-89
2021/12/03 00:21:13;;;;;;;10.48;5.22;;;-1.80;99.90;;;;;;4956893;29;20403;-87
2021/12/03 00:23:39;;;;;;;10.23;5.10;;;-1.80;99.90;;;;;;4955514;29;20419;-85
2021/12/03 00:26:07;;;;;;;9.82;5.10;;;-1.80;99.90;;;;;;4956199;29;20419;-84
2021/12/03 00:28:33;;;;;;;9.80;4.77;;;-1.70;99.90;;;;;;4958421;29;20568;-87
2021/12/03 00:31:00;;;;;;;10.93;5.32;;;-1.70;99.90;;;;;;4957008;29;20403;-89
2021/12/03 00:33:28;;;;;;;10.52;5.00;;;-1.70;99.90;;;;;;4955442;29;20404;-87
2021/12/03 00:35:56;;;;;;;9.35;4.63;;;-1.70;99.90;;;;;;4956200;29;20431;-85
2021/12/03 00:38:22;;;;;;;10.10;5.43;;;-1.70;99.90;;;;;;4956527;28;20491;-84
2021/12/03 00:40:48;;;;;;;9.80;4.43;;;-1.60;99.90;;;;;;4972076;28;20423;-85
2021/12/03 00:43:14;;;;;;;9.98;4.95;;;-1.70;99.90;;;;;;4956675;29;20436;-85
2021/12/03 00:45:42;;;;;;;9.13;4.70;;;-1.60;99.90;;;;;;4954392;29;20404;-86
2021/12/03 00:48:08;;;;;;;8.85;4.45;;;-1.50;99.90;;;;;;4940042;29;20404;-86
2021/12/03 00:50:34;;;;;;;10.18;5.07;;;-1.40;99.90;;;;;;4954768;29;20428;-83
2021/12/03 00:53:01;;;;;;;9.00;4.38;;;-1.40;99.90;;;;;;4958345;28;20728;-85
2021/12/03 00:55:31;;;;;;;12.10;4.22;;;-1.40;99.90;;;;;;4957072;29;20411;-85
2021/12/03 00:57:56;;;;;;;10.00;4.60;;;-1.40;99.90;;;;;;4960499;29;21140;-87
2021/12/03 01:00:30;;;;;;;12.40;4.57;;;-1.30;99.90;;;;;;4960360;29;20913;-86
2021/12/03 01:02:58;;;;;;;10.20;4.63;;;-1.40;99.90;;;;;;4957101;29;20413;-88
2021/12/03 01:05:24;;;;;;;10.25;4.75;;;-1.40;99.90;;;;;;4959817;29;20399;-88
2021/12/03 01:07:50;;;;;;;7.70;3.87;;;-1.30;99.90;;;;;;4973527;28;20432;-88
2021/12/03 01:10:16;;;;;;;9.07;4.10;;;-1.20;99.90;;;;;;4957099;28;20790;-87
2021/12/03 01:12:42;;;;;;;8.98;4.25;;;-1.30;99.90;;;;;;4956165;29;20937;-84
2021/12/03 01:15:14;;;;;;;7.38;4.18;;;-1.30;99.90;;;;;;4956980;29;20415;-86
2021/12/03 01:17:40;;;;;;;11.82;4.65;;;-1.30;99.90;;;;;;4955270;29;20431;-84
2021/12/03 01:20:09;;;;;;;12.02;4.80;;;-1.40;99.90;;;;;;4956198;29;20973;-87
2021/12/03 01:22:34;;;;;;;11.13;4.65;;;-1.40;99.90;;;;;;4953461;29;20420;-85
2021/12/03 01:25:00;;;;;;;11.50;4.60;;;-1.40;99.90;;;;;;4938147;29;20414;-84
2021/12/03 01:27:26;;;;;;;8.70;4.75;;;-1.40;99.90;;;;;;4953160;29;20464;-85
2021/12/03 01:29:52;;;;;;;11.50;5.10;;;-1.50;99.90;;;;;;4956487;29;20424;-86
2021/12/03 01:32:18;;;;;;;8.55;4.57;;;-1.50;99.90;;;;;;4955172;29;20440;-86
2021/12/03 01:34:44;;;;;;;9.05;5.20;;;-1.50;99.90;;;;;;4954593;29;20408;-86
2021/12/03 01:37:09;;;;;;;8.77;5.00;;;-1.50;99.90;;;;;;4951821;28;20396;-85
2021/12/03 01:39:35;;;;;;;9.63;5.20;;;-1.50;99.90;;;;;;4954316;29;20420;-84
2021/12/03 01:42:01;;;;;;;7.80;5.10;;;-1.60;99.90;;;;;;4952532;29;20411;-85
2021/12/03 01:44:26;;;;;;;9.13;5.70;;;-1.50;99.90;;;;;;4951415;29;20403;-87
2021/12/03 01:46:53;;;;;;;11.20;6.07;;;-1.40;99.90;;;;;;4950917;29;20451;-85
2021/12/03 01:49:19;;;;;;;11.77;7.03;;;-1.60;99.90;;;;;;4968391;28;20475;-85
2021/12/03 01:51:45;;;;;;;11.55;6.65;;;-1.60;99.90;;;;;;4954128;29;20424;-88
2021/12/03 01:54:10;;;;;;;12.82;7.00;;;-1.50;99.90;;;;;;4954293;28;20870;-86
2021/12/03 01:56:38;;;;;;;11.48;7.57;;;-1.50;99.90;;;;;;4966971;28;20450;-86
2021/12/03 01:59:04;;;;;;;13.75;7.43;;;-1.50;99.90;;;;;;4950976;28;20882;-84
2021/12/03 02:01:30;;;;;;;11.10;7.95;;;-1.40;99.90;;;;;;4960758;29;20443;-86
2021/12/03 02:04:00;;;;;;;10.67;7.50;;;-1.30;99.90;;;;;;4954161;29;20973;-84
2021/12/03 02:06:28;;;;;;;11.00;7.50;;;-1.30;99.90;;;;;;4936972;29;20400;-86
2021/12/03 02:08:55;;;;;;;12.98;7.60;;;-1.30;99.90;;;;;;4952402;29;20412;-86
2021/12/03 02:11:21;;;;;;;11.40;7.68;;;-1.20;99.90;;;;;;4953281;29;20407;-86
2021/12/03 02:13:48;;;;;;;11.32;7.53;;;-1.00;99.90;;;;;;4954224;29;20427;-87
2021/12/03 02:16:15;;;;;;;9.98;7.13;;;-0.90;99.90;;;;;;4954727;29;20536;-87
2021/12/03 02:18:42;;;;;;;10.80;6.97;;;-0.80;99.90;;;;;;4953681;29;20871;-84
2021/12/03 02:21:12;;;;;;;11.93;7.35;;;-0.80;99.90;;;;;;4955067;29;20396;-86
2021/12/03 02:23:38;;;;;;;10.02;7.80;;;-0.70;99.90;;;;;;4952723;29;20411;-86
2021/12/03 02:26:04;;;;;;;11.88;8.02;;;-0.60;99.90;;;;;;4953046;29;20397;-86
2021/12/03 02:28:33;;;;;;;13.77;8.47;;;-0.60;99.90;;;;;;4950223;29;20404;-86
2021/12/03 02:30:59;;;;;;;13.68;8.10;;;-0.60;99.90;;;;;;4952888;29;20466;-84
2021/12/03 02:33:25;;;;;;;13.18;9.02;;;-0.70;99.90;;;;;;4946856;29;20488;-87
2021/12/03 02:35:51;;;;;;;12.02;8.68;;;-0.70;99.90;;;;;;4951555;28;20408;-86
2021/12/03 02:38:20;;;;;;;13.50;9.17;;;-0.60;99.90;;;;;;4950479;28;20416;-86
2021/12/03 02:40:47;;;;;;;13.77;9.02;;;-0.70;99.90;;;;;;4951244;29;20420;-87
2021/12/03 02:43:14;;;;;;;14.77;9.57;;;-0.70;99.90;;;;;;4953431;29;20405;-85
2021/12/03 02:45:40;;;;;;;14.40;9.55;;;-0.70;99.90;;;;;;4954385;28;20392;-86
2021/12/03 02:48:06;;;;;;;12.25;9.13;;;-0.70;99.90;;;;;;4969002;28;20720;-86
2021/12/03 02:50:32;;;;;;;11.65;8.82;;;-0.80;99.90;;;;;;4946082;29;20898;-86
2021/12/03 02:52:58;;;;;;;13.95;9.52;;;-0.70;99.90;;;;;;4945462;29;20511;-85
2021/12/03 02:55:25;;;;;;;13.73;9.57;;;-0.80;99.90;;;;;;4945562;29;20403;-84
2021/12/03 02:57:51;;;;;;;13.65;9.07;;;-0.70;99.90;;;;;;4950282;29;20438;-86
2021/12/03 03:00:19;;;;;;;17.08;9.63;;;-0.70;99.90;;;;;;4949073;29;21219;-87
2021/12/03 03:02:45;;;;;;;11.82;8.63;;;-0.60;99.90;;;;;;4952668;28;20411;-85
2021/12/03 03:05:12;;;;;;;13.90;9.60;;;-0.70;99.90;;;;;;4945233;29;20381;-85
2021/12/03 03:07:38;;;;;;;14.30;8.90;;;-0.70;99.90;;;;;;4950734;29;20392;-86
2021/12/03 03:10:09;;;;;;;14.13;9.03;;;-0.70;99.90;;;;;;4961865;28;20412;-84
2021/12/03 03:12:37;;;;;;;14.93;9.13;;;-0.70;99.90;;;;;;4946086;29;20424;-85
2021/12/03 03:15:04;;;;;;;14.90;8.93;;;-0.70;99.90;;;;;;4950276;29;20407;-88
2021/12/03 03:17:31;;;;;;;14.82;8.77;;;-0.70;99.90;;;;;;4945224;28;20423;-86
2021/12/03 03:19:58;;;;;;;15.15;8.50;;;-0.70;99.90;;;;;;4936341;29;20428;-85
2021/12/03 03:22:24;;;;;;;13.35;8.13;;;-0.70;99.90;;;;;;4957274;29;20392;-85
2021/12/03 03:24:52;;;;;;;13.53;7.87;;;-0.70;99.90;;;;;;4970158;28;20418;-85
2021/12/03 03:27:19;;;;;;;13.02;8.93;;;-0.60;99.90;;;;;;4959602;29;20400;-86
2021/12/03 03:29:49;;;;;;;12.73;8.13;;;-0.60;99.90;;;;;;4966215;28;20384;-86
2021/12/03 03:32:16;;;;;;;11.35;7.80;;;-0.50;99.90;;;;;;4950836;29;20416;-87
2021/12/03 03:34:43;;;;;;;14.52;8.27;;;-0.60;99.90;;;;;;4952581;29;20482;-86
2021/12/03 03:37:09;;;;;;;12.32;8.65;;;-0.70;99.90;;;;;;4952246;28;20487;-87
2021/12/03 03:39:35;;;;;;;11.20;7.78;;;-0.80;99.90;;;;;;4946322;29;20512;-86
2021/12/03 03:42:01;;;;;;;12.07;8.13;;;-0.80;99.90;;;;;;4945881;29;20962;-88
2021/12/03 03:44:27;;;;;;;11.18;7.43;;;-0.80;99.90;;;;;;4947691;29;20396;-87
2021/12/03 03:46:53;;;;;;;10.65;7.70;;;-0.80;99.90;;;;;;4968636;28;20475;-86
2021/12/03 03:49:23;;;;;;;12.60;7.23;;;-0.80;99.90;;;;;;4952437;28;20497;-84
2021/12/03 03:51:50;;;;;;;11.65;7.03;;;-0.80;99.90;;;;;;4953964;29;20424;-87
2021/12/03 03:54:17;;;;;;;10.98;7.18;;;-0.70;99.90;;;;;;4947016;28;20402;-85
2021/12/03 03:56:43;;;;;;;13.50;7.47;;;-0.70;99.90;;;;;;4945861;28;20469;-87
2021/12/03 03:59:09;;;;;;;12.30;7.05;;;-0.70;99.90;;;;;;4951778;28;20403;-86
2021/12/03 04:01:35;;;;;;;10.50;7.10;;;-0.70;99.90;;;;;;4951002;29;20385;-87
2021/12/03 04:04:00;;;;;;;10.40;6.50;;;-0.70;99.90;;;;;;4951227;29;20827;-85
2021/12/03 04:06:26;;;;;;;12.70;6.67;;;-0.70;99.90;;;;;;4950052;29;20479;-86
2021/12/03 04:08:53;;;;;;;10.95;7.15;;;-0.80;99.90;;;;;;4951809;29;20910;-85
2021/12/03 04:11:22;;;;;;;14.05;7.72;;;-0.70;99.90;;;;;;4950138;29;20392;-88
2021/12/03 04:13:47;;;;;;;11.80;7.13;;;-0.70;99.90;;;;;;4952079;29;20500;-89
2021/12/03 04:16:13;;;;;;;12.87;7.50;;;-0.70;99.90;;;;;;4953289;29;20533;-86
2021/12/03 04:18:39;;;;;;;11.07;7.22;;;-0.70;99.90;;;;;;4950735;28;20392;-86
2021/12/03 04:21:05;;;;;;;10.60;7.23;;;-0.80;99.90;;;;;;4951783;29;20403;-85
2021/12/03 04:23:30;;;;;;;13.63;7.53;;;-0.70;99.90;;;;;;4951459;29;20472;-87
2021/12/03 04:25:56;;;;;;;11.93;6.90;;;-0.70;99.90;;;;;;4952158;28;20408;-86
2021/12/03 04:28:22;;;;;;;12.48;7.40;;;-0.80;99.90;;;;;;4948296;28;20396;-86
2021/12/03 04:30:49;;;;;;;12.68;7.90;;;-0.80;99.90;;;;;;4952587;29;20468;-87
2021/12/03 04:33:15;;;;;;;11.85;7.65;;;-0.90;99.90;;;;;;4938880;29;20416;-88
2021/12/03 04:35:41;;;;;;;11.43;7.90;;;-0.90;99.90;;;;;;4952154;29;20408;-86
2021/12/03 04:38:09;;;;;;;10.90;7.50;;;-0.90;99.90;;;;;;4955704;29;20411;-88
2021/12/03 04:40:37;;;;;;;10.55;7.53;;;-0.80;99.90;;;;;;4953382;28;20536;-84
2021/12/03 04:43:04;;;;;;;12.85;7.97;;;-0.80;99.90;;;;;;4951353;29;20392;-86
2021/12/03 04:45:30;;;;;;;11.38;7.75;;;-0.80;99.90;;;;;;4951887;29;20750;-86
2021/12/03 04:47:59;;;;;;;13.13;7.68;;;-0.80;99.90;;;;;;4954734;29;20392;-85
2021/12/03 04:50:28;;;;;;;10.93;7.57;;;-0.80;99.90;;;;;;4938750;29;20484;-84
2021/12/03 04:52:54;;;;;;;12.13;7.47;;;-0.80;99.90;;;;;;4951306;29;20423;-85
2021/12/03 04:55:21;;;;;;;11.63;7.10;;;-0.90;99.90;;;;;;4955313;29;20885;-85
2021/12/03 04:57:49;;;;;;;13.75;8.00;;;-0.90;99.90;;;;;;4950709;29;20411;-86
2021/12/03 05:00:26;;;;;;;10.80;7.25;;;-0.90;99.90;;;;;;4951761;29;20406;-87
2021/12/03 05:02:53;;;;;;;12.30;7.38;;;-0.80;99.90;;;;;;4953107;29;20483;-86
2021/12/03 05:05:19;;;;;;;13.18;7.38;;;-0.80;99.90;;;;;;4953919;29;20466;-85
2021/12/03 05:08:02;;;;;;;12.07;6.97;;;-0.80;99.90;;;;;;4954298;29;20455;-85
2021/12/03 05:10:29;;;;;;;14.38;8.27;;;-0.80;99.90;;;;;;4956656;29;20418;-83
2021/12/03 05:13:01;;;;;;;12.43;7.40;;;-0.90;99.90;;;;;;4965285;29;20436;-85
2021/12/03 05:15:27;;;;;;;11.40;7.60;;;-0.80;99.90;;;;;;4963232;29;20400;-83
2021/12/03 05:17:53;;;;;;;12.25;7.47;;;-0.80;99.90;;;;;;4954306;28;20414;-85
2021/12/03 05:20:19;;;;;;;13.13;6.68;;;-0.80;99.90;;;;;;4948077;29;20899;-87
2021/12/03 05:22:45;;;;;;;10.88;6.40;;;-0.80;99.90;;;;;;4952886;29;20404;-86
2021/12/03 05:25:10;;;;;;;10.23;6.40;;;-0.70;99.90;;;;;;4952568;28;21077;-86
2021/12/03 05:27:38;;;;;;;9.55;6.10;;;-0.80;99.90;;;;;;4952437;29;20610;-87
2021/12/03 05:30:05;;;;;;;8.97;5.83;;;-0.80;99.90;;;;;;4962871;28;20435;-87
2021/12/03 05:32:30;;;;;;;10.15;6.50;;;-0.70;99.90;;;;;;4947653;28;20763;-87
2021/12/03 05:34:56;;;;;;;9.33;6.03;;;-0.70;99.90;;;;;;4952899;29;20526;-87
2021/12/03 05:37:21;;;;;;;8.00;6.40;;;-0.70;99.90;;;;;;4952513;29;20392;-87
2021/12/03 05:39:47;;;;;;;12.30;6.63;;;-0.80;99.90;;;;;;4952533;28;20460;-87
2021/12/03 05:42:13;;;;;;;10.95;6.25;;;-0.80;99.90;;;;;;4952534;29;20906;-85
2021/12/03 05:44:38;;;;;;;11.45;6.53;;;-0.80;99.90;;;;;;4952989;29;20472;-86
2021/12/03 05:47:05;;;;;;;13.05;6.70;;;-0.80;99.90;;;;;;4951105;29;20483;-86
2021/12/03 05:49:32;;;;;;;11.80;6.88;;;-0.80;99.90;;;;;;4954791;29;20431;-87
2021/12/03 05:51:57;;;;;;;11.13;6.10;;;-0.80;99.90;;;;;;4952279;29;20435;-89
2021/12/03 05:54:26;;;;;;;11.33;6.00;;;-0.70;99.90;;;;;;4952365;28;20439;-88
2021/12/03 05:56:52;;;;;;;10.20;6.30;;;-0.70;99.90;;;;;;4954588;29;20491;-85
2021/12/03 05:59:18;;;;;;;9.73;6.33;;;-0.70;99.90;;;;;;4953317;29;20495;-85
2021/12/03 06:01:48;;;;;;;11.30;6.53;;;-0.80;99.90;;;;;;4961108;29;20403;-84
2021/12/03 06:04:13;;;;;;;10.38;6.32;;;-0.70;99.90;;;;;;4965628;29;20455;-84
2021/12/03 06:06:42;;;;;;;13.30;7.53;;;-0.80;99.90;;;;;;4963407;29;20385;-85
2021/12/03 06:09:08;;;;;;;9.70;6.55;;;-0.80;99.90;;;;;;4946910;29;20424;-84
2021/12/03 06:11:33;;;;;;;11.23;6.97;;;-0.80;99.90;;;;;;4962534;29;20400;-84
2021/12/03 06:13:59;;;;;;;10.93;6.53;;;-0.80;99.90;;;;;;4961561;29;20396;-85
2021/12/03 06:16:25;;;;;;;10.57;6.45;;;-0.70;99.90;;;;;;4942059;29;20414;-85
2021/12/03 06:18:52;;;;;;;12.77;6.90;;;-0.70;99.90;;;;;;4952734;29;20406;-84
2021/12/03 06:21:17;;;;;;;9.30;6.72;;;-0.70;99.90;;;;;;4974669;28;20408;-84
2021/12/03 06:23:45;;;;;;;11.30;7.25;;;-0.70;99.90;;;;;;4957681;29;20388;-84
2021/12/03 06:26:12;;;;;;;12.13;7.18;;;-0.80;99.90;;;;;;4954802;28;20487;-87
2021/12/03 06:28:41;;;;;;;10.45;6.90;;;-0.70;99.90;;;;;;4956015;29;20427;-85
2021/12/03 06:31:07;;;;;;;12.00;7.75;;;-0.70;99.90;;;;;;4958099;29;20408;-87
2021/12/03 06:33:33;;;;;;;12.23;7.63;;;-0.70;99.90;;;;;;4967950;29;21250;-84
2021/12/03 06:35:59;;;;;;;11.63;7.43;;;-0.70;99.90;;;;;;4956565;29;20427;-87
2021/12/03 06:38:26;;;;;;;11.80;8.40;;;-0.70;99.90;;;;;;4954498;29;20463;-88
2021/12/03 06:40:52;;;;;;;11.90;7.78;;;-0.70;99.90;;;;;;4950804;29;20503;-88
2021/12/03 06:43:19;;;;;;;10.88;7.38;;;-0.70;99.90;;;;;;4955698;29;20368;-86
2021/12/03 06:45:46;;;;;;;13.57;7.97;;;-0.70;99.90;;;;;;4967375;28;21508;-87
2021/12/03 06:48:12;;;;;;;13.20;9.13;;;-0.70;99.90;;;;;;4951558;29;20399;-86
2021/12/03 06:50:38;;;;;;;13.90;8.77;;;-0.70;99.90;;;;;;4951441;29;20871;-82
2021/12/03 06:53:07;;;;;;;12.70;8.05;;;-0.70;99.90;;;;;;4953813;28;20416;-86
2021/12/03 06:55:38;;;;;;;12.75;8.60;;;-0.70;99.90;;;;;;4959667;28;20423;-87
2021/12/03 06:58:04;;;;;;;11.85;8.55;;;-0.60;99.90;;;;;;4950479;29;20442;-85
2021/12/03 07:00:30;;;;;;;13.43;8.97;;;-0.60;99.90;;;;;;4951243;29;20435;-86
2021/12/03 07:02:56;;;;;;;12.85;8.65;;;-0.50;99.90;;;;;;4955527;29;20507;-84
2021/12/03 07:05:23;;;;;;;13.65;9.23;;;-0.50;99.90;;;;;;4950372;29;20492;-83
2021/12/03 07:07:50;;;;;;;11.43;9.10;;;-0.50;99.90;;;;;;4952795;29;20384;-85
2021/12/03 07:10:16;;;;;;;12.65;9.55;;;-0.50;99.90;;;;;;4953397;29;20404;-85
2021/12/03 07:12:42;;;;;;;13.93;9.57;;;-0.40;99.90;;;;;;4952395;28;21003;-87
2021/12/03 07:15:08;;;;;;;13.88;9.77;;;-0.40;99.90;;;;;;4950731;29;20787;-88
2021/12/03 07:17:36;;;;;;;15.10;9.97;;;-0.40;99.90;;;;;;4962399;28;20468;-85
2021/12/03 07:20:07;;;;;;;13.57;8.83;;;-0.40;99.90;;;;;;4950735;29;20408;-87
2021/12/03 07:22:33;;;;;;;14.10;9.25;;;-0.30;99.90;;;;;;4952945;29;20385;-84
2021/12/03 07:24:59;;;;;;;14.50;9.52;;;-0.30;99.90;;;;;;4937721;29;20408;-84
2021/12/03 07:27:25;;;;;;;13.40;9.77;;;-0.30;99.90;;;;;;4950718;28;21116;-84
2021/12/03 07:29:51;;;;;;;15.05;9.38;;;-0.10;99.90;;;;;;4952971;29;20388;-88
2021/12/03 07:32:19;;;;;;;12.80;9.80;;;-0.10;99.90;;;;;;4950458;29;20408;-87
2021/12/03 07:34:45;;;;;;;16.50;9.90;;;-0.10;99.90;;;;;;4946795;29;20479;-87
2021/12/03 07:37:11;;;;;;;16.63;9.98;;;0.00;99.90;;;;;;4949303;29;20380;-87
2021/12/03 07:39:37;;;;;;;14.30;9.77;;;0.10;99.90;;;;;;4950947;29;20816;-84
2021/12/03 07:42:06;;;;;;;13.48;9.57;;;0.20;99.90;;;;;;4948095;28;20411;-89
2021/12/03 07:44:33;;;;;;;13.23;9.80;;;0.20;99.90;;;;;;4947991;29;20467;-88
2021/12/03 07:46:59;;;;;;;13.77;10.20;;;0.30;99.90;;;;;;4948689;29;20420;-85
2021/12/03 07:49:26;;;;;;;12.63;9.70;;;0.30;99.90;;;;;;4948933;29;20392;-87
2021/12/03 07:51:52;;;;;;;13.32;10.10;;;0.40;99.90;;;;;;4950643;29;20422;-88
2021/12/03 07:54:18;;;;;;;15.73;11.10;;;0.30;99.90;;;;;;4948238;29;20484;-85
2021/12/03 07:56:45;;;;;;;12.88;10.02;;;0.40;99.90;;;;;;4954594;29;20436;-86
2021/12/03 07:59:13;;;;;;;14.82;10.65;;;0.30;99.90;;;;;;4951805;29;20396;-85
2021/12/03 08:01:43;;;;;;;16.85;11.05;;;0.40;99.90;;;;;;4953769;29;20906;-83
2021/12/03 08:04:10;;;;;;;16.58;10.70;;;0.40;99.90;;;;;;4961893;28;20423;-84
2021/12/03 08:06:39;;;;;;;17.38;11.50;;;0.50;99.90;;;;;;4964342;29;20380;-85
2021/12/03 08:09:05;;;;;;;16.58;11.85;;;0.50;99.90;;;;;;4960996;28;20406;-81
2021/12/03 08:11:33;;;;;;;13.90;11.48;;;0.50;99.90;;;;;;4962620;29;20400;-83
2021/12/03 08:13:58;;;;;;;13.38;10.07;;;0.50;99.90;;;;;;4963556;29;20428;-83
2021/12/03 08:16:24;;;;;;;14.75;10.88;;;0.50;99.90;;;;;;4946888;29;20400;-83
2021/12/03 08:18:59;;;;;;;12.82;10.00;;;0.50;99.90;;;;;;4960812;29;20427;-85
2021/12/03 08:21:24;;;;;;;12.43;10.45;;;0.50;99.90;;;;;;4955740;29;20397;-83
2021/12/03 08:23:50;;;;;;;15.32;11.15;;;0.70;99.90;;;;;;4965181;29;20436;-83
2021/12/03 08:26:16;;;;;;;14.88;11.30;;;0.70;99.90;;;;;;4952948;29;20490;-85
2021/12/03 08:28:42;;;;;;;14.02;10.48;;;0.70;99.90;;;;;;4942900;28;20414;-84
2021/12/03 08:31:14;;;;;;;14.52;11.18;;;0.80;99.90;;;;;;4954895;29;20487;-85
2021/12/03 08:33:40;;;;;;;14.77;10.43;;;0.80;99.90;;;;;;4961831;28;20974;-84
2021/12/03 08:36:08;;;;;;;13.55;10.25;;;0.90;99.90;;;;;;4961357;29;20895;-86
2021/12/03 08:38:33;;;;;;;14.65;10.73;;;1.00;99.90;;;;;;4963981;28;20388;-84
2021/12/03 08:40:59;;;;;;;15.40;11.10;;;1.10;99.90;;;;;;4960288;29;20510;-85
2021/12/03 08:43:26;;;;;;;15.07;10.50;;;1.00;99.90;;;;;;4960254;28;20903;-85
2021/12/03 08:45:54;;;;;;;12.98;10.27;;;1.10;99.90;;;;;;5223623;23;20912;-90
2021/12/03 08:48:24;;;;;;;12.07;9.82;;;1.20;99.90;;;;;;4940889;29;20396;-87
2021/12/03 08:51:09;;;;;;;12.90;10.03;;;1.40;99.90;;;;;;4954966;28;20455;-86
2021/12/03 08:56:21;;;;;;;15.60;9.88;;;1.50;99.90;;;;;;4962995;28;20422;-88
2021/12/03 08:58:48;;;;;;;12.75;9.70;;;1.70;99.90;;;;;;4957448;29;20842;-87
2021/12/03 09:01:19;;;;;;;11.80;9.53;;;1.60;99.90;;;;;;4948182;29;20465;-89
2021/12/03 09:03:46;;;;;;;13.80;10.13;;;1.60;99.90;;;;;;4952442;28;20398;-87
2021/12/03 09:06:11;;;;;;;13.87;10.37;;;1.70;99.90;;;;;;4955787;29;20431;-85
2021/12/03 09:08:37;;;;;;;12.67;9.53;;;1.70;99.90;;;;;;4951969;28;20400;-88
2021/12/03 09:11:05;;;;;;;13.27;9.30;;;1.80;99.90;;;;;;4954197;29;20495;-88
2021/12/03 09:13:35;;;;;;;13.85;9.57;;;1.90;99.90;;;;;;4972251;28;20546;-87
2021/12/03 09:16:07;;;;;;;11.40;9.25;;;2.10;99.90;;;;;;4954533;28;20935;-86
2021/12/03 09:18:43;;;;;;;11.45;8.98;;;2.10;99.90;;;;;;4956092;28;20408;-86
2021/12/03 09:26:27;;;;;;;11.85;8.75;;;2.30;99.90;;;;;;4973349;28;20394;-85
2021/12/03 09:29:16;;;;;;;11.00;8.93;;;2.30;99.90;;;;;;4954605;28;20898;-87
2021/12/03 09:31:47;;;;;;;13.10;9.90;;;2.30;99.90;;;;;;4956828;28;20448;-86
2021/12/03 09:34:15;;;;;;;13.20;9.17;;;2.40;99.90;;;;;;4953251;28;20750;-86
2021/12/03 09:36:41;;;;;;;12.18;8.75;;;2.50;99.90;;;;;;4953253;29;20747;-85
2021/12/03 09:39:17;;;;;;;13.20;8.30;;;2.50;99.90;;;;;;4961159;28;20372;-87
2021/12/03 09:41:42;;;;;;;12.18;8.68;;;2.50;99.90;;;;;;4948289;28;20732;-89
2021/12/03 09:44:09;;;;;;;12.88;9.63;;;2.40;99.90;;;;;;4937359;28;20435;-85
2021/12/03 09:46:36;;;;;;;11.88;8.60;;;2.40;99.90;;;;;;4952947;28;20409;-85
2021/12/03 09:52:00;;;;;;;11.60;8.38;;;2.30;99.90;;;;;;4969254;28;21078;-87
2021/12/03 09:54:50;;;;;;;12.23;8.63;;;2.40;99.90;;;;;;4955054;28;20493;-89
2021/12/03 09:57:29;;;;;;;12.93;9.10;;;2.50;99.90;;;;;;4971375;28;20390;-86
2021/12/03 10:14:57;;;;;;;11.53;8.83;;;3.10;99.90;;;;;;4958173;28;20434;-88
2021/12/03 10:20:11;;;;;;;10.95;8.55;;;3.10;99.90;;;;;;4970525;28;20734;-88
2021/12/03 10:28:29;;;;;;;12.18;8.50;;;3.00;99.90;;;;;;4970222;28;20505;-87
2021/12/03 10:36:49;;;;;;;11.10;8.48;;;3.00;99.90;;;;;;4969514;28;20382;-87
2021/12/03 10:51:14;;;;;;;10.57;7.65;;;3.10;99.90;;;;;;4889485;29;20403;-87
2021/12/03 10:53:54;;;;;;;11.10;8.27;;;2.90;99.90;;;;;;4954110;28;20418;-88
2021/12/03 10:59:45;;;;;;;12.05;8.27;;;2.90;99.90;;;;;;5030971;27;2120874;-88
2021/12/03 11:38:14;;;;;;;7.95;6.70;;;3.90;99.90;;;;;;5080717;28;20412;-88
2021/12/03 14:48:27;;;;;;;15.75;12.95;;;2.90;99.90;;;;;;5055076;28;20463;-85
2021/12/03 14:56:22;;;;;;;16.52;12.90;;;2.90;99.90;;;;;;5047788;28;20392;-86
2021/12/03 14:59:11;;;;;;;15.85;12.52;;;2.70;99.90;;;;;;5039744;28;20420;-86
2021/12/03 15:01:53;;;;;;;16.65;11.75;;;2.80;99.90;;;;;;5035435;28;20545;-85
2021/12/03 15:04:34;;;;;;;14.57;12.35;;;2.80;99.90;;;;;;5035357;28;20407;-84
2021/12/03 15:09:35;;;;;;;15.73;12.05;;;2.80;99.90;;;;;;5052334;28;20844;-86
2021/12/03 15:14:57;;;;;;;14.82;12.65;;;2.80;99.90;;;;;;5056853;28;20967;-87
2021/12/03 15:23:09;;;;;;;13.88;12.35;;;2.80;99.90;;;;;;5057951;28;20392;-85
2021/12/03 15:25:59;;;;;;;16.67;13.68;;;2.70;99.90;;;;;;5037047;28;20837;-86
2021/12/03 15:29:11;;;;;;;16.67;13.55;;;2.60;99.90;;;;;;5027667;28;20764;-86
2021/12/03 16:03:55;;;;;;;21.40;17.43;;;2.30;99.90;;;;;;5054892;28;20451;-84
2021/12/03 16:08:50;;;;;;;17.48;15.55;;;2.20;99.90;;;;;;5063753;28;21063;-84
2021/12/03 16:11:32;;;;;;;19.83;15.27;;;2.30;99.90;;;;;;5041583;28;20405;-87
2021/12/03 16:22:07;;;;;;;20.73;15.15;;;2.00;99.90;;;;;;5058015;28;20511;-86
2021/12/03 16:24:59;;;;;;;21.92;16.52;;;2.10;99.90;;;;;;5056850;28;20402;-86
2021/12/03 16:44:02;;;;;;;16.45;13.45;;;2.10;99.90;;;;;;5052751;28;20438;-86
2021/12/03 16:46:54;;;;;;;17.43;13.87;;;2.20;99.90;;;;;;5041508;28;20901;-87
2021/12/03 16:52:07;;;;;;;17.75;13.27;;;2.20;99.90;;;;;;5058052;28;20430;-87
2021/12/03 16:57:07;;;;;;;15.30;12.18;;;2.20;99.90;;;;;;5057978;28;20441;-86
2021/12/03 16:59:33;;;;;;;15.47;12.40;;;2.20;99.90;;;;;;5044102;28;20479;-86
2021/12/03 17:02:05;;;;;;;15.43;13.20;;;2.30;99.90;;;;;;5038164;28;20788;-86
2021/12/03 17:48:23;;;;;;;12.75;9.18;;;2.60;99.90;;;;;;5048180;28;20425;-84
2021/12/03 17:56:17;;;;;;;13.02;10.00;;;2.60;99.90;;;;;;5065436;28;20397;-85
2021/12/03 17:58:51;;;;;;;14.57;10.27;;;2.60;99.90;;;;;;5062535;28;20414;-84
2021/12/03 18:01:24;;;;;;;12.80;9.02;;;2.60;99.90;;;;;;5045925;28;20422;-86
2021/12/03 18:04:04;;;;;;;13.17;8.97;;;2.70;99.90;;;;;;5046767;28;20460;-85
2021/12/03 18:09:39;;;;;;;12.13;8.35;;;2.60;99.90;;;;;;5063902;28;20381;-86
2021/12/03 18:15:29;;;;;;;11.40;8.10;;;2.60;99.90;;;;;;5063219;28;20393;-84
2021/12/03 18:55:30;;;;;;;11.65;7.80;;;2.60;99.90;;;;;;5063180;28;20446;-84
2021/12/03 18:58:02;;;;;;;12.52;8.38;;;2.60;99.90;;;;;;5064413;28;20394;-83
2021/12/03 19:00:44;;;;;;;10.52;7.55;;;2.60;99.90;;;;;;5060857;28;20389;-84
2021/12/03 19:03:49;;;;;;;12.05;8.55;;;2.70;99.90;;;;;;5042925;28;20482;-84
2021/12/03 19:06:20;;;;;;;12.00;8.18;;;2.70;99.90;;;;;;5064346;28;20862;-85
2021/12/03 19:08:51;;;;;;;10.80;8.20;;;2.70;99.90;;;;;;5043444;28;20374;-84
2021/12/03 19:11:34;;;;;;;10.32;7.70;;;2.70;99.90;;;;;;5063137;28;20407;-84
2021/12/03 19:13:59;;;;;;;10.37;7.30;;;2.70;99.90;;;;;;5044154;28;20900;-84
2021/12/03 19:16:27;;;;;;;10.43;7.70;;;2.80;99.90;;;;;;5063839;28;20374;-83
2021/12/03 19:18:55;;;;;;;8.95;6.80;;;2.80;99.90;;;;;;5063172;28;20763;-83
2021/12/03 19:21:24;;;;;;;9.00;6.85;;;2.90;99.90;;;;;;5061012;28;20385;-84
2021/12/03 19:23:52;;;;;;;10.77;7.70;;;2.80;99.90;;;;;;5068684;28;20955;-83
2021/12/03 19:26:19;;;;;;;11.95;8.07;;;2.80;99.90;;;;;;5046427;28;20402;-84
2021/12/03 19:28:46;;;;;;;10.40;7.40;;;2.80;99.90;;;;;;5054514;28;20385;-84
2021/12/03 19:31:12;;;;;;;10.13;7.47;;;2.80;99.90;;;;;;5040393;28;20392;-87
2021/12/03 19:33:37;;;;;;;9.27;7.20;;;2.90;99.90;;;;;;5058913;28;20487;-83
2021/12/03 19:36:04;;;;;;;9.13;7.40;;;2.90;99.90;;;;;;5057761;28;20412;-83
2021/12/03 19:38:31;;;;;;;8.60;7.38;;;2.90;99.90;;;;;;5053650;28;20414;-84
2021/12/03 19:41:04;;;;;;;9.43;7.68;;;2.90;99.90;;;;;;5049423;28;20866;-82
2021/12/03 19:43:39;;;;;;;9.93;8.52;;;2.90;99.90;;;;;;5049450;28;20745;-84
2021/12/03 19:46:06;;;;;;;11.27;8.87;;;2.70;99.90;;;;;;5070041;28;20491;-83
2021/12/03 19:48:40;;;;;;;10.82;8.10;;;2.70;99.90;;;;;;5049674;28;20394;-85
2021/12/03 19:51:13;;;;;;;10.60;8.93;;;2.70;99.90;;;;;;5052303;28;20497;-84
2021/12/03 19:53:45;;;;;;;10.88;9.52;;;2.60;99.90;;;;;;5067100;28;20414;-84
2021/12/03 19:56:12;;;;;;;13.57;9.85;;;2.50;99.90;;;;;;5064335;28;20406;-84
2021/12/03 19:58:38;;;;;;;12.57;9.95;;;2.40;99.90;;;;;;5069519;28;20729;-85
2021/12/03 20:01:03;;;;;;;14.00;11.32;;;2.40;99.90;;;;;;5067395;28;20535;-83
2021/12/03 20:03:29;;;;;;;13.95;11.75;;;2.30;99.90;;;;;;5048155;28;20390;-82
2021/12/03 20:05:55;;;;;;;12.70;11.32;;;2.20;99.90;;;;;;5050960;28;20732;-83
2021/12/03 20:08:22;;;;;;;16.08;13.10;;;2.10;99.90;;;;;;5046820;28;20441;-81
2021/12/03 20:10:49;;;;;;;18.02;13.98;;;2.00;99.90;;;;;;5048088;28;20384;-83
2021/12/03 20:13:21;;;;;;;16.10;13.63;;;1.90;99.90;;;;;;5066424;28;20383;-82
2021/12/03 20:15:58;;;;;;;17.50;14.82;;;1.80;99.90;;;;;;5045214;28;20749;-83
2021/12/03 20:18:35;;;;;;;19.00;14.47;;;1.80;99.90;;;;;;5066402;28;20938;-85
2021/12/03 20:21:02;;;;;;;19.67;15.95;;;1.80;99.90;;;;;;5045929;28;20389;-83